Time;durP1;ratioP1;P1;durP2;ratioP2;P2;SDS_P1;SDS_P2;PMS_P1;PMS_P2;Temp;Humidity;BMP_temperature;BMP_pressure;BME280_temperature;BME280_humidity;BME280_pressure;Samples;Min_cycle;Max_cycle;Signal;HPM_P1;HPM_P2
2023/08/07 00:00:15;;;;;;;14.57;8.15;;;15.20;99.90;;;16.04;100.00;99601.09;5049970;28;20067;-80
2023/08/07 00:02:40;;;;;;;10.32;7.93;;;15.30;99.90;;;16.09;100.00;99601.06;5032436;28;20460;-79
2023/08/07 00:05:06;;;;;;;11.57;8.20;;;15.30;99.90;;;16.12;100.00;99619.78;5043994;28;20040;-79
2023/08/07 00:07:32;;;;;;;12.00;7.53;;;15.40;99.90;;;16.07;100.00;99622.53;5042975;28;20049;-80
2023/08/07 00:09:58;;;;;;;12.80;7.97;;;15.40;99.90;;;16.00;100.00;99616.50;5021633;28;20034;-82
2023/08/07 00:12:23;;;;;;;10.93;7.60;;;15.50;99.90;;;16.01;100.00;99613.47;5021140;28;20033;-79
2023/08/07 00:14:50;;;;;;;11.43;6.90;;;15.50;99.90;;;16.24;100.00;99645.06;5027283;28;20049;-81
2023/08/07 00:17:16;;;;;;;10.20;6.75;;;15.60;99.90;;;16.35;100.00;99639.53;5015141;28;20044;-81
2023/08/07 00:19:42;;;;;;;12.25;6.88;;;15.60;99.90;;;16.21;100.00;99634.63;5024172;28;20482;-81
2023/08/07 00:22:08;;;;;;;10.90;7.22;;;15.60;99.90;;;16.08;100.00;99618.69;5017614;28;20048;-79
2023/08/07 00:24:34;;;;;;;12.55;6.82;;;15.60;99.90;;;16.22;100.00;99625.28;5016330;28;20046;-79
2023/08/07 00:26:59;;;;;;;11.25;7.13;;;15.50;99.90;;;16.22;100.00;99610.66;5021811;28;20085;-79
2023/08/07 00:29:25;;;;;;;10.68;7.90;;;15.50;99.90;;;16.15;100.00;99608.22;5022826;28;20061;-81
2023/08/07 00:31:51;;;;;;;11.70;7.10;;;15.40;99.90;;;16.17;100.00;99600.50;5024098;28;20045;-80
2023/08/07 00:34:17;;;;;;;13.57;7.25;;;15.40;99.90;;;15.95;100.00;99609.94;5023390;28;20049;-80
2023/08/07 00:36:45;;;;;;;11.45;7.25;;;15.40;99.90;;;15.96;100.00;99595.06;5024470;28;20029;-80
2023/08/07 00:39:11;;;;;;;10.00;7.07;;;15.40;99.90;;;16.04;100.00;99604.66;5028793;28;20763;-80
2023/08/07 00:41:39;;;;;;;11.57;7.65;;;15.40;99.90;;;16.71;100.00;99609.13;5015159;28;20045;-81
2023/08/07 00:44:06;;;;;;;13.00;8.55;;;15.40;99.90;;;15.89;100.00;99615.72;5018638;28;20038;-81
2023/08/07 00:46:31;;;;;;;13.82;9.48;;;15.40;99.90;;;15.97;100.00;99584.88;5016852;28;20080;-81
2023/08/07 00:48:58;;;;;;;12.18;8.15;;;15.30;99.90;;;16.04;100.00;99574.41;5022931;28;20041;-81
2023/08/07 00:51:24;;;;;;;9.75;8.25;;;15.20;99.90;;;15.84;100.00;99552.44;5024695;28;20025;-81
2023/08/07 00:53:50;;;;;;;13.25;9.15;;;15.20;99.90;;;15.78;100.00;99546.13;5045923;28;20060;-81
2023/08/07 00:56:17;;;;;;;14.75;9.45;;;15.20;99.90;;;15.70;100.00;99531.00;5029376;28;20034;-83
2023/08/07 00:58:43;;;;;;;12.65;10.05;;;15.10;99.90;;;15.81;100.00;99515.31;5018436;28;20112;-83
2023/08/07 01:01:09;;;;;;;16.58;10.40;;;15.00;99.90;;;15.65;100.00;99522.78;5029150;28;20033;-81
2023/08/07 01:03:35;;;;;;;14.55;9.70;;;15.00;99.90;;;15.66;100.00;99516.19;5046385;28;20038;-82
2023/08/07 01:06:01;;;;;;;13.20;10.98;;;15.00;99.90;;;15.69;100.00;99510.13;5031536;28;20032;-82
2023/08/07 01:08:28;;;;;;;16.75;11.60;;;15.00;99.90;;;15.66;100.00;99506.03;5030093;28;20049;-80
2023/08/07 01:11:24;;;;;;;14.95;11.95;;;15.00;99.90;;;15.99;100.00;99510.34;5033344;28;20490;-81
2023/08/07 01:14:24;;;;;;;17.20;12.27;;;15.00;99.90;;;15.66;100.00;99519.78;5026324;28;20037;-81
2023/08/07 01:17:07;;;;;;;14.63;11.63;;;15.00;99.90;;;15.86;100.00;99498.78;5021538;28;20034;-80
2023/08/07 01:19:36;;;;;;;14.63;11.10;;;14.90;99.90;;;15.74;100.00;99503.78;5045695;28;20038;-81
2023/08/07 01:22:12;;;;;;;19.05;12.68;;;14.90;99.90;;;15.60;100.00;99493.38;5024015;28;20111;-81
2023/08/07 01:24:43;;;;;;;17.60;11.98;;;14.90;99.90;;;15.65;100.00;99506.28;5021392;28;20041;-83
2023/08/07 01:27:19;;;;;;;18.25;13.38;;;14.90;99.90;;;15.61;100.00;99467.53;5032174;28;20038;-82
2023/08/07 01:30:17;;;;;;;19.48;13.18;;;14.90;99.90;;;15.66;100.00;99447.44;5041216;28;20630;-83
2023/08/07 01:33:11;;;;;;;19.38;13.80;;;14.80;99.90;;;15.67;100.00;99447.19;5032364;28;20132;-83
2023/08/07 01:35:55;;;;;;;20.27;14.48;;;14.80;99.90;;;15.76;100.00;99474.91;5021109;28;20045;-82
2023/08/07 01:38:26;;;;;;;22.20;15.32;;;14.80;99.90;;;15.68;100.00;99462.56;5042776;28;20034;-83
2023/08/07 01:40:53;;;;;;;25.13;16.48;;;14.80;99.90;;;15.59;100.00;99464.25;5040729;28;20044;-83
2023/08/07 01:43:20;;;;;;;22.92;16.38;;;14.80;99.90;;;15.65;100.00;99457.66;5014947;28;20025;-84
2023/08/07 01:45:46;;;;;;;25.35;17.77;;;14.70;99.90;;;15.42;100.00;99458.25;5036528;28;20033;-81
2023/08/07 01:48:12;;;;;;;23.88;17.17;;;14.70;99.90;;;15.50;100.00;99447.50;5023396;28;20044;-82
2023/08/07 01:50:39;;;;;;;21.90;16.92;;;14.70;99.90;;;15.50;100.00;99465.91;5031034;28;20033;-83
2023/08/07 01:53:05;;;;;;;25.23;17.88;;;14.70;99.90;;;15.12;100.00;99455.25;5022710;28;20046;-80
2023/08/07 01:55:31;;;;;;;20.83;16.55;;;14.70;99.90;;;15.27;100.00;99440.69;5029260;28;20555;-81
2023/08/07 01:57:57;;;;;;;22.35;16.63;;;14.60;99.90;;;15.07;100.00;99431.38;5035364;28;20041;-83
2023/08/07 02:00:23;;;;;;;25.65;16.77;;;14.50;99.90;;;15.74;100.00;99424.06;5044492;28;20030;-80
2023/08/07 02:02:49;;;;;;;23.88;17.92;;;14.50;99.90;;;15.08;100.00;99448.69;5032120;28;20055;-81
2023/08/07 02:05:16;;;;;;;25.30;17.98;;;14.50;99.90;;;15.01;100.00;99440.72;5030312;28;20110;-83
2023/08/07 02:07:42;;;;;;;21.33;15.48;;;14.40;99.90;;;14.97;100.00;99431.38;5030471;28;20064;-81
2023/08/07 02:10:08;;;;;;;23.48;17.30;;;14.40;99.90;;;15.72;100.00;99429.84;5025319;28;20041;-82
2023/08/07 02:12:35;;;;;;;28.55;17.30;;;14.40;99.90;;;15.67;100.00;99465.59;5026500;28;20025;-82
2023/08/07 02:15:02;;;;;;;23.13;15.68;;;14.40;99.90;;;15.18;100.00;99475.31;5030868;28;20029;-81
2023/08/07 02:17:32;;;;;;;26.27;16.20;;;14.30;99.90;;;15.08;100.00;99468.72;5026425;28;20168;-81
2023/08/07 02:19:58;;;;;;;24.67;15.93;;;14.30;99.90;;;15.92;100.00;99505.97;5030658;28;20042;-81
2023/08/07 02:22:25;;;;;;;22.73;15.80;;;14.30;99.90;;;15.20;100.00;99511.56;5035654;28;20201;-82
2023/08/07 02:24:51;;;;;;;22.02;15.02;;;14.30;99.90;;;15.07;100.00;99467.06;5044165;28;20072;-82
2023/08/07 02:27:17;;;;;;;21.45;14.00;;;14.30;99.90;;;14.83;100.00;99433.88;5022959;28;20060;-80
2023/08/07 02:29:44;;;;;;;21.63;14.25;;;14.30;99.90;;;15.43;100.00;99446.16;5020105;28;20036;-81
2023/08/07 02:32:11;;;;;;;23.25;13.15;;;14.30;99.90;;;15.03;100.00;99435.78;5029920;28;20049;-80
2023/08/07 02:34:37;;;;;;;18.88;12.48;;;14.30;99.90;;;15.04;100.00;99445.66;5020550;28;20604;-82
2023/08/07 02:37:03;;;;;;;19.00;12.98;;;14.30;99.90;;;14.98;100.00;99463.25;5015924;28;20042;-81
2023/08/07 02:39:29;;;;;;;20.58;12.82;;;14.30;99.90;;;15.27;100.00;99489.31;5019828;28;20053;-83
2023/08/07 02:41:54;;;;;;;20.35;12.90;;;14.30;99.90;;;15.08;100.00;99489.88;5025936;28;20949;-83
2023/08/07 02:44:20;;;;;;;18.65;12.45;;;14.30;99.90;;;15.08;100.00;99463.22;5024420;28;20104;-82
2023/08/07 02:46:46;;;;;;;17.73;11.45;;;14.30;99.90;;;15.08;100.00;99481.66;5016770;28;20401;-81
2023/08/07 02:49:12;;;;;;;18.77;11.77;;;14.20;99.90;;;15.14;100.00;99468.75;5016618;28;20502;-83
2023/08/07 02:51:38;;;;;;;18.30;11.70;;;14.20;99.90;;;15.28;100.00;99486.28;5024854;28;20057;-83
2023/08/07 02:54:03;;;;;;;16.17;11.25;;;14.20;99.90;;;15.19;100.00;99490.69;5036967;28;20079;-81
2023/08/07 02:56:30;;;;;;;18.08;11.30;;;14.20;99.90;;;14.90;100.00;99494.81;5031695;28;20060;-83
2023/08/07 02:58:58;;;;;;;16.77;10.82;;;14.10;99.90;;;14.89;100.00;99484.94;5029049;28;20034;-80
2023/08/07 03:01:24;;;;;;;18.63;10.32;;;14.10;99.90;;;14.90;100.00;99494.81;5032102;28;20037;-83
2023/08/07 03:03:50;;;;;;;18.45;10.65;;;14.20;99.90;;;14.90;100.00;99488.50;5033697;28;20036;-81
2023/08/07 03:06:17;;;;;;;16.25;10.52;;;14.10;99.90;;;14.77;100.00;99465.16;5022108;28;20034;-82
2023/08/07 03:08:43;;;;;;;17.45;10.35;;;14.20;99.90;;;15.24;100.00;99469.53;5017420;28;20045;-83
2023/08/07 03:11:09;;;;;;;18.30;10.45;;;14.20;99.90;;;14.71;100.00;99466.25;5028688;28;20040;-81
2023/08/07 03:13:35;;;;;;;15.13;10.30;;;14.20;99.90;;;15.70;100.00;99487.03;5035623;28;20029;-82
2023/08/07 03:16:03;;;;;;;19.70;9.88;;;14.20;99.90;;;15.89;100.00;99564.25;5030377;28;20655;-81
2023/08/07 03:18:29;;;;;;;15.95;9.70;;;14.20;99.90;;;15.63;100.00;99575.28;5030275;28;20065;-81
2023/08/07 03:20:56;;;;;;;15.07;9.45;;;14.20;99.90;;;15.91;100.00;99575.00;5030036;28;20061;-82
2023/08/07 03:23:23;;;;;;;19.10;10.93;;;14.20;99.90;;;15.64;100.00;99587.13;5027698;28;20040;-82
2023/08/07 03:25:50;;;;;;;16.58;10.70;;;14.20;99.90;;;16.09;100.00;99617.59;5023511;28;20483;-82
2023/08/07 03:28:17;;;;;;;18.10;10.82;;;14.20;99.90;;;15.90;100.00;99614.59;5025547;28;20379;-82
2023/08/07 03:30:44;;;;;;;17.13;11.70;;;14.30;99.90;;;15.00;100.00;99612.09;5019900;28;20108;-82
2023/08/07 03:33:12;;;;;;;17.10;11.07;;;14.30;99.90;;;14.82;100.00;99531.06;5025039;28;20060;-81
2023/08/07 03:35:40;;;;;;;17.13;10.85;;;14.30;99.90;;;14.98;100.00;99529.16;5042006;28;20034;-81
2023/08/07 03:38:06;;;;;;;17.30;11.35;;;14.40;99.90;;;15.10;100.00;99506.91;5024429;28;20198;-82
2023/08/07 03:40:33;;;;;;;21.33;10.30;;;14.40;99.90;;;15.45;100.00;99527.22;5029570;28;20485;-79
2023/08/07 03:42:59;;;;;;;16.20;10.98;;;14.40;99.90;;;15.31;100.00;99532.44;5029402;28;20033;-80
2023/08/07 03:45:26;;;;;;;19.15;11.07;;;14.40;99.90;;;15.68;100.00;99539.56;5023496;28;20033;-80
2023/08/07 03:47:52;;;;;;;19.52;11.55;;;14.40;99.90;;;15.25;100.00;99574.75;5028617;28;20045;-80
2023/08/07 03:50:18;;;;;;;20.63;11.40;;;14.40;99.90;;;16.18;100.00;99601.34;5041833;28;20025;-79
2023/08/07 03:52:44;;;;;;;18.23;10.73;;;14.50;99.90;;;16.30;100.00;99640.34;5023396;28;20026;-79
2023/08/07 03:55:10;;;;;;;16.13;10.15;;;14.50;99.90;;;16.16;100.00;99659.38;5039905;28;20065;-79
2023/08/07 03:57:36;;;;;;;19.17;10.90;;;14.50;99.90;;;16.19;100.00;99683.59;5025271;28;20033;-79
2023/08/07 04:00:03;;;;;;;18.58;10.73;;;14.50;99.90;;;16.27;100.00;99686.88;5043156;28;20032;-79
2023/08/07 04:02:39;;;;;;;16.10;9.38;;;14.50;99.90;;;16.25;100.00;99685.25;5020762;28;20043;-79
2023/08/07 04:05:06;;;;;;;16.45;10.60;;;14.50;99.90;;;15.98;100.00;99679.25;5043010;28;20362;-80
2023/08/07 04:07:31;;;;;;;14.02;10.43;;;14.50;99.90;;;16.24;100.00;99667.09;5042989;28;20050;-79
2023/08/07 04:09:57;;;;;;;14.57;10.10;;;14.50;99.90;;;16.24;100.00;99700.09;5043446;28;20092;-79
2023/08/07 04:12:23;;;;;;;13.93;9.18;;;14.50;99.90;;;15.39;100.00;99690.44;5041724;28;20052;-79
2023/08/07 04:14:49;;;;;;;14.10;9.48;;;14.50;99.90;;;15.37;100.00;99630.25;5027704;28;20493;-79
2023/08/07 04:17:15;;;;;;;15.63;9.90;;;14.60;99.90;;;15.42;100.00;99614.91;5036074;28;20034;-78
2023/08/07 04:19:41;;;;;;;19.88;11.13;;;14.60;99.90;;;15.32;100.00;99604.72;5011447;28;20045;-79
2023/08/07 04:22:07;;;;;;;18.30;9.88;;;14.60;99.90;;;15.64;100.00;99639.34;5022882;28;20493;-78
2023/08/07 04:24:32;;;;;;;15.38;9.52;;;14.60;99.90;;;15.31;100.00;99620.38;5033764;28;20038;-79
2023/08/07 04:26:58;;;;;;;16.17;9.18;;;14.60;99.90;;;15.44;100.00;99604.44;5023406;28;20038;-78
2023/08/07 04:29:25;;;;;;;19.30;9.93;;;14.60;99.90;;;15.48;100.00;99611.03;5025881;28;20042;-77
2023/08/07 04:31:50;;;;;;;17.30;9.38;;;14.60;99.90;;;15.29;100.00;99592.34;5020210;28;20044;-78
2023/08/07 04:34:16;;;;;;;15.63;8.65;;;14.70;99.90;;;15.35;100.00;99613.22;5030158;28;20041;-77
2023/08/07 04:36:56;;;;;;;14.00;9.60;;;14.60;99.90;;;15.62;100.00;99614.88;5031672;28;20465;-77
2023/08/07 04:39:22;;;;;;;14.63;9.25;;;14.70;99.90;;;15.48;100.00;99633.03;5031861;28;20050;-78
2023/08/07 04:41:49;;;;;;;14.45;9.57;;;14.70;99.90;;;15.43;100.00;99628.34;5031958;28;20856;-77
2023/08/07 04:44:16;;;;;;;15.43;9.75;;;14.70;99.90;;;15.13;100.00;99632.72;5032180;28;20041;-78
2023/08/07 04:46:42;;;;;;;16.52;9.75;;;14.70;99.90;;;15.48;100.00;99617.34;5029665;28;20095;-80
2023/08/07 04:49:07;;;;;;;17.35;9.27;;;14.70;99.90;;;15.31;100.00;99608.56;5032034;28;20046;-82
2023/08/07 04:51:33;;;;;;;15.13;9.48;;;14.70;99.90;;;15.38;100.00;99618.19;5022555;28;20037;-82
2023/08/07 04:53:59;;;;;;;17.45;9.50;;;14.70;99.90;;;15.35;100.00;99617.91;5031070;28;20046;-80
2023/08/07 04:56:25;;;;;;;14.60;8.95;;;14.70;99.90;;;15.52;100.00;99628.63;5031774;28;20088;-78
2023/08/07 04:58:50;;;;;;;13.63;8.68;;;14.70;99.90;;;15.57;100.00;99642.38;5044972;28;20440;-78
2023/08/07 05:01:16;;;;;;;13.98;8.88;;;14.80;99.90;;;15.68;100.00;99644.03;5026879;28;20044;-77
2023/08/07 05:03:42;;;;;;;16.75;9.23;;;14.80;99.90;;;15.24;100.00;99637.09;5030277;28;20497;-78
2023/08/07 05:06:07;;;;;;;14.15;9.40;;;14.80;99.90;;;15.61;100.00;99686.63;5032181;28;20466;-77
2023/08/07 05:08:33;;;;;;;15.55;7.95;;;14.80;99.90;;;15.37;100.00;99676.16;5030772;28;20046;-77
2023/08/07 05:10:59;;;;;;;12.95;8.63;;;14.90;99.90;;;15.33;100.00;99658.56;5031305;28;20473;-77
2023/08/07 05:13:25;;;;;;;15.90;9.15;;;14.90;99.90;;;15.13;100.00;99638.19;5030306;28;20044;-77
2023/08/07 05:15:50;;;;;;;13.65;9.05;;;14.90;99.90;;;15.27;100.00;99632.19;5031529;28;20044;-78
2023/08/07 05:18:16;;;;;;;14.05;9.55;;;14.90;99.90;;;15.24;100.00;99612.38;5030322;28;20083;-78
2023/08/07 05:20:42;;;;;;;14.82;8.35;;;14.90;99.90;;;15.52;100.00;99631.38;5031303;28;20095;-77
2023/08/07 05:23:09;;;;;;;15.00;8.68;;;14.90;99.90;;;15.66;100.00;99639.91;5020460;28;20038;-77
2023/08/07 05:25:34;;;;;;;12.60;8.60;;;15.00;99.90;;;15.60;100.00;99661.06;5031285;28;20025;-78
2023/08/07 05:28:00;;;;;;;12.55;7.38;;;15.00;99.90;;;15.82;100.00;99676.44;5031240;28;20544;-78
2023/08/07 05:30:26;;;;;;;13.98;7.00;;;15.10;99.90;;;16.51;100.00;99712.72;5026266;28;20057;-80
2023/08/07 05:32:52;;;;;;;10.70;7.45;;;15.10;99.90;;;16.02;100.00;99749.09;5030873;28;20029;-76
2023/08/07 05:35:18;;;;;;;12.38;7.55;;;15.10;99.90;;;15.59;100.00;99708.06;5031141;28;20579;-77
2023/08/07 05:37:43;;;;;;;12.82;6.90;;;15.10;99.90;;;15.63;100.00;99696.25;5030378;28;20033;-78
2023/08/07 05:40:11;;;;;;;9.90;6.80;;;15.10;99.90;;;15.84;100.00;99731.19;5019543;28;20462;-77
2023/08/07 05:42:37;;;;;;;10.98;6.60;;;15.10;99.90;;;15.76;100.00;99722.38;5024837;28;20030;-77
2023/08/07 05:45:04;;;;;;;10.27;6.07;;;15.20;99.90;;;15.77;100.00;99721.25;5030480;28;20366;-77
2023/08/07 05:47:32;;;;;;;11.43;6.68;;;15.30;99.90;;;16.78;100.00;99752.81;5025061;28;20042;-77
2023/08/07 05:49:58;;;;;;;9.65;5.88;;;15.30;99.90;;;16.77;100.00;99775.13;5031546;28;20095;-78
2023/08/07 05:52:24;;;;;;;10.02;5.60;;;15.40;99.90;;;17.06;100.00;99807.56;5032273;28;20045;-78
2023/08/07 05:54:49;;;;;;;10.52;5.85;;;15.50;99.90;;;16.95;100.00;99806.75;5045859;28;20037;-78
2023/08/07 05:57:15;;;;;;;10.48;5.78;;;15.50;99.90;;;16.23;100.00;99788.41;5029678;28;20089;-76
2023/08/07 05:59:41;;;;;;;7.90;5.35;;;15.60;99.90;;;15.81;100.00;99765.53;5030500;28;20441;-78
2023/08/07 06:02:07;;;;;;;9.95;5.75;;;15.50;99.90;;;15.65;100.00;99751.81;5024218;28;20038;-80
2023/08/07 06:04:33;;;;;;;13.27;5.65;;;15.50;99.90;;;15.65;100.00;99751.81;5030207;28;20034;-79
2023/08/07 06:06:58;;;;;;;8.20;5.10;;;15.40;99.90;;;15.65;100.00;99746.31;5029432;28;20198;-78
2023/08/07 06:09:24;;;;;;;9.93;5.25;;;15.50;99.90;;;15.77;100.00;99745.19;5030293;28;20474;-79
2023/08/07 06:11:50;;;;;;;7.78;4.70;;;15.40;99.90;;;15.72;100.00;99757.00;5030266;28;20041;-81
2023/08/07 06:14:16;;;;;;;7.65;4.85;;;15.40;99.90;;;15.59;100.00;99750.13;5029176;28;20103;-80
2023/08/07 06:16:41;;;;;;;10.20;4.70;;;15.40;99.90;;;15.66;100.00;99761.69;5030376;28;20037;-78
2023/08/07 06:19:08;;;;;;;11.55;4.72;;;15.50;99.90;;;15.79;100.00;99763.09;5030528;28;20045;-79
2023/08/07 06:21:34;;;;;;;10.00;5.47;;;15.50;99.90;;;15.86;100.00;99782.06;5029592;28;20124;-80
2023/08/07 06:24:00;;;;;;;6.85;4.60;;;15.50;99.90;;;15.93;100.00;99795.56;5028970;28;20129;-79
2023/08/07 06:26:25;;;;;;;7.43;4.38;;;15.60;99.90;;;15.85;100.00;99798.84;5030260;28;20045;-80
2023/08/07 06:28:51;;;;;;;7.28;4.50;;;15.50;99.90;;;15.98;100.00;99781.00;5030099;28;20033;-81
2023/08/07 06:31:18;;;;;;;8.32;4.65;;;15.60;99.90;;;16.20;100.00;99800.81;5028317;28;20033;-80
2023/08/07 06:33:43;;;;;;;6.55;3.95;;;15.60;99.90;;;16.11;100.00;99794.19;5022452;28;20029;-78
2023/08/07 06:36:09;;;;;;;7.00;3.78;;;15.60;99.90;;;16.11;100.00;99805.22;5028544;28;20092;-79
2023/08/07 06:38:35;;;;;;;6.53;3.83;;;15.60;99.90;;;16.09;100.00;99807.41;5030030;28;20041;-80
2023/08/07 06:41:01;;;;;;;7.47;3.60;;;15.60;99.90;;;16.09;100.00;99816.50;5024581;28;20034;-80
2023/08/07 06:43:27;;;;;;;7.13;3.40;;;15.60;99.90;;;16.13;100.00;99816.75;5014826;28;20045;-83
2023/08/07 06:45:55;;;;;;;7.07;3.63;;;15.70;99.90;;;16.28;100.00;99826.13;5016794;28;20470;-81
2023/08/07 06:48:21;;;;;;;5.30;3.30;;;15.80;99.90;;;16.34;100.00;99834.13;5035287;28;21512;-81
2023/08/07 06:50:48;;;;;;;6.65;3.30;;;15.80;99.90;;;16.90;100.00;99861.88;5024209;28;20386;-83
2023/08/07 06:53:14;;;;;;;5.88;3.40;;;15.90;99.90;;;17.33;100.00;99883.53;5026226;28;20049;-82
2023/08/07 06:55:44;;;;;;;10.15;3.38;;;16.00;99.90;;;17.65;100.00;99898.88;5022823;28;20037;-82
2023/08/07 06:58:10;;;;;;;9.50;3.95;;;16.10;99.90;;;16.79;100.00;99881.16;5027044;28;20478;-81
2023/08/07 07:00:37;;;;;;;7.03;3.20;;;16.20;99.90;;;16.68;100.00;99858.31;5023770;28;20026;-80
2023/08/07 07:03:04;;;;;;;6.07;3.42;;;16.20;99.90;;;16.82;100.00;99877.00;5025909;28;20045;-80
2023/08/07 07:05:32;;;;;;;7.00;3.50;;;16.30;99.90;;;16.86;100.00;99883.66;5022872;28;20540;-80
2023/08/07 07:07:58;;;;;;;7.05;3.33;;;16.30;99.90;;;16.56;100.00;99870.72;5026776;28;20057;-80
2023/08/07 07:10:24;;;;;;;5.43;3.10;;;16.20;99.90;;;16.69;100.00;99878.41;5028367;28;20025;-77
2023/08/07 07:12:49;;;;;;;8.50;3.65;;;16.20;99.90;;;16.85;100.00;99886.66;5028741;28;20516;-79
2023/08/07 07:15:16;;;;;;;11.07;3.50;;;16.20;99.90;;;16.91;100.00;99871.78;5027358;28;20485;-77
2023/08/07 07:17:42;;;;;;;5.47;3.35;;;16.20;99.90;;;17.23;100.00;99910.03;5023655;28;20045;-79
2023/08/07 07:20:09;;;;;;;6.88;3.00;;;16.20;99.90;;;16.86;100.00;99888.31;5028298;28;20030;-78
2023/08/07 07:22:35;;;;;;;4.80;3.30;;;16.30;99.90;;;16.83;100.00;99876.75;5034602;28;20077;-77
2023/08/07 07:25:01;;;;;;;7.68;2.88;;;16.50;99.90;;;17.49;100.00;99903.63;5027822;28;20497;-80
2023/08/07 07:27:27;;;;;;;6.70;3.20;;;16.90;99.90;;;17.17;100.00;99904.81;5013440;28;20052;-79
2023/08/07 07:29:53;;;;;;;5.93;2.90;;;16.90;99.90;;;17.37;100.00;99904.75;5029468;28;20079;-80
2023/08/07 07:32:19;;;;;;;5.18;3.13;;;17.00;99.90;;;18.12;100.00;99913.28;5027203;28;20386;-80
2023/08/07 07:34:45;;;;;;;6.25;3.25;;;17.30;99.90;;;17.48;100.00;99929.53;5025667;28;20044;-80
2023/08/07 07:37:10;;;;;;;7.18;3.47;;;17.20;99.90;;;17.06;100.00;99902.09;5017044;28;20046;-79
2023/08/07 07:39:36;;;;;;;6.43;3.40;;;17.00;99.90;;;17.19;100.00;99916.38;5017552;28;20041;-77
2023/08/07 07:42:04;;;;;;;7.50;3.60;;;16.90;99.90;;;17.02;100.00;99923.06;5021714;28;20445;-78
2023/08/07 07:44:31;;;;;;;;;;;16.80;99.90;;;17.50;100.00;99924.56;5021472;28;20084;-80
2023/08/07 07:46:56;;;;;;;9.52;3.35;;;16.80;99.90;;;17.41;100.00;99929.84;5023747;28;19974;-79
2023/08/07 07:49:22;;;;;;;5.63;2.85;;;16.90;99.90;;;17.25;100.00;99926.31;5039455;28;20045;-79
2023/08/07 07:51:49;;;;;;;7.78;2.90;;;16.90;99.90;;;17.77;100.00;99928.88;5023937;28;20112;-79
2023/08/07 07:54:15;;;;;;;5.65;2.83;;;17.20;99.90;;;17.92;100.00;99942.59;5041959;28;20037;-78
2023/08/07 07:56:42;;;;;;;7.13;3.33;;;17.40;99.90;;;18.54;100.00;99945.00;5028542;28;20029;-80
2023/08/07 07:59:07;;;;;;;5.35;2.38;;;17.80;99.90;;;18.71;100.00;99945.75;5027034;28;20030;-80
2023/08/07 08:01:33;;;;;;;4.78;2.22;;;18.10;99.90;;;18.58;100.00;99955.50;5016972;28;20141;-79
2023/08/07 08:03:59;;;;;;;8.07;2.42;;;18.30;99.90;;;18.44;100.00;99947.06;5022072;28;20060;-80
2023/08/07 08:06:24;;;;;;;4.65;1.98;;;18.20;99.90;;;19.09;100.00;99959.81;5028337;28;20045;-85
2023/08/07 08:08:50;;;;;;;5.45;2.13;;;18.20;99.90;;;18.55;100.00;99952.19;5026939;28;20045;-78
2023/08/07 08:11:16;;;;;;;5.38;1.83;;;18.20;99.90;;;18.66;100.00;99954.88;5043992;28;20049;-77
2023/08/07 08:13:42;;;;;;;4.20;1.98;;;18.10;99.90;;;19.87;100.00;99978.31;5020051;28;20048;-81
2023/08/07 08:16:10;;;;;;;4.95;2.13;;;18.20;99.90;;;20.00;100.00;99982.34;5029281;28;20037;-78
2023/08/07 08:18:35;;;;;;;3.97;1.90;;;18.40;99.90;;;19.29;100.00;99989.19;5025305;28;20034;-78
2023/08/07 08:21:01;;;;;;;4.47;1.60;;;18.30;99.90;;;19.04;100.00;99984.72;5026916;28;20452;-77
2023/08/07 08:23:27;;;;;;;6.00;2.03;;;18.40;99.90;;;19.03;100.00;99988.59;5022402;28;20425;-78
2023/08/07 08:25:53;;;;;;;6.07;2.03;;;18.60;99.90;;;19.23;100.00;99988.44;5029342;28;20046;-77
2023/08/07 08:28:18;;;;;;;4.82;2.03;;;18.60;99.90;;;19.17;100.00;99991.53;5024211;28;20065;-77
2023/08/07 08:30:44;;;;;;;6.28;1.70;;;18.30;99.90;;;19.72;100.00;99990.41;5022081;28;20041;-78
2023/08/07 08:33:14;;;;;;;5.30;1.85;;;18.20;99.90;;;19.52;100.00;99995.88;5027382;28;20077;-77
2023/08/07 08:35:40;;;;;;;5.32;1.85;;;18.00;99.90;;;18.53;100.00;99989.50;5017090;28;20069;-81
2023/08/07 08:38:06;;;;;;;9.60;2.17;;;17.60;99.90;;;18.93;100.00;99984.78;5028161;28;20057;-81
2023/08/07 08:40:33;;;;;;;9.02;1.90;;;17.50;99.90;;;18.83;100.00;99998.69;5027664;28;20037;-80
2023/08/07 08:43:02;;;;;;;4.67;1.70;;;17.50;99.90;;;18.90;100.00;99995.59;5018290;28;20121;-84
2023/08/07 08:45:32;;;;;;;4.53;1.60;;;17.60;99.90;;;19.03;100.00;100000.47;5017071;28;20291;-79
2023/08/07 08:48:03;;;;;;;6.07;2.15;;;17.60;99.90;;;19.13;100.00;100009.81;5020825;28;20123;-78
2023/08/07 08:50:31;;;;;;;4.30;1.98;;;17.70;99.90;;;18.98;100.00;100022.63;5024774;28;20034;-77
2023/08/07 08:52:58;;;;;;;6.28;1.83;;;17.70;99.90;;;19.45;100.00;100014.75;5019053;28;20405;-80
2023/08/07 08:55:26;;;;;;;6.47;1.83;;;17.90;99.90;;;19.54;100.00;100017.69;5028020;28;20034;-80
2023/08/07 08:57:53;;;;;;;5.95;1.73;;;18.20;99.90;;;19.70;100.00;100012.81;5017550;28;20033;-79
2023/08/07 09:00:21;;;;;;;4.40;1.50;;;18.50;99.90;;;20.17;100.00;100015.91;5017620;28;20513;-80
2023/08/07 09:02:49;;;;;;;;;;;18.80;99.90;;;19.16;100.00;100025.81;5025499;28;20045;-80
2023/08/07 09:05:16;;;;;;;5.25;1.90;;;18.60;99.90;;;19.04;100.00;100040.00;5012527;28;19916;-79
2023/08/07 09:07:42;;;;;;;7.30;2.53;;;18.00;99.90;;;16.15;100.00;99927.38;5017403;28;20095;-81
2023/08/07 09:10:13;;;;;;;9.65;3.90;;;15.90;99.90;;;15.12;100.00;99542.31;5023147;28;20136;-82
2023/08/07 09:12:56;;;;;;;34.53;27.88;;;14.90;99.90;;;14.64;100.00;99526.88;5038213;28;20497;-84
2023/08/07 09:15:26;;;;;;;175.60;94.50;;;14.40;99.90;;;15.51;100.00;99552.75;5016387;28;20048;-79
2023/08/07 09:17:55;;;;;;;18.77;10.98;;;14.20;99.90;;;14.82;100.00;99676.56;5025187;28;20037;-79
2023/08/07 09:20:22;;;;;;;29.27;18.90;;;13.80;99.90;;;14.80;100.00;99745.47;5022015;28;20076;-80
2023/08/07 09:22:48;;;;;;;36.38;26.45;;;13.70;99.90;;;14.74;100.00;99762.19;5020656;28;20032;-81
2023/08/07 09:25:15;;;;;;;36.63;25.83;;;13.70;99.90;;;14.97;100.00;99766.41;5031190;28;20033;-78
2023/08/07 09:27:41;;;;;;;45.03;28.05;;;13.70;99.90;;;15.20;100.00;99811.03;5029471;28;20041;-78
2023/08/07 09:30:09;;;;;;;70.60;42.28;;;14.00;99.90;;;15.58;100.00;99832.88;5022095;28;20538;-81
2023/08/07 09:32:35;;;;;;;22.70;12.88;;;14.10;99.90;;;15.41;100.00;99853.16;5013640;28;20431;-81
2023/08/07 09:35:13;;;;;;;22.02;10.45;;;14.20;99.90;;;15.72;100.00;99860.69;5031411;28;20504;-83
2023/08/07 09:37:39;;;;;;;19.73;8.88;;;14.40;99.90;;;16.10;100.00;99869.59;5043198;28;20562;-78
2023/08/07 09:40:06;;;;;;;9.35;4.00;;;14.80;99.90;;;16.10;100.00;99875.94;5035276;28;20029;-79
2023/08/07 09:42:33;;;;;;;12.10;4.13;;;15.00;99.90;;;16.66;100.00;99862.44;5020975;28;20132;-77
2023/08/07 09:45:00;;;;;;;9.73;3.08;;;15.30;99.90;;;17.34;100.00;99888.78;5031044;28;20501;-80
2023/08/07 09:47:27;;;;;;;8.40;3.30;;;15.60;99.90;;;17.12;100.00;99922.22;5029608;28;20033;-78
2023/08/07 09:49:55;;;;;;;9.13;3.40;;;15.90;99.90;;;17.18;100.00;99932.13;5031197;28;20043;-76
2023/08/07 09:52:22;;;;;;;8.68;3.05;;;16.10;99.90;;;18.14;100.00;99915.75;5052658;28;20043;-80
2023/08/07 09:54:47;;;;;;;9.93;3.30;;;16.60;99.90;;;18.74;100.00;99934.91;5048647;28;20075;-79
2023/08/07 09:57:14;;;;;;;11.88;3.40;;;17.10;99.90;;;18.82;100.00;99969.41;5028497;28;20025;-80
2023/08/07 09:59:41;;;;;;;9.63;2.90;;;17.50;99.90;;;18.98;100.00;99978.41;5036432;28;20451;-80
2023/08/07 10:02:09;;;;;;;7.38;2.60;;;17.80;99.90;;;17.82;100.00;99986.81;5026231;28;20043;-80
2023/08/07 10:04:36;;;;;;;5.70;2.53;;;17.30;99.90;;;18.13;100.00;99989.47;5026571;28;20050;-81